Latest Weather Observations for Grafton AgRS

IDN60801

Issued at 7:32 pm EST Wednesday 12 August 2020 (issued every 10 minutes, with the page automatically refreshed every 10 minutes)

About weather observations | Map of weather stations | Latest weather observations for NSW | Other Formats
Station Details ID: 058077 Name: GRAFTON RESEARCH STN Lat: -29.62 Lon: 152.96 Height: 25.0 m
Data from the previous 72 hours. | See also: Recent months at Grafton AgRS
Date/Time
EST
Temp
°C
App
Temp
°C
Dew
Point
°C
Rel
Hum
%
Delta-T
°C
Wind Press
QNH
hPa
Press
MSL
hPa
Rain since
9am
mm
Dir  Spd
km/h
Gust
km/h
Spd
kts
Gust
kts
12/07:30pm 15.4 16.5 13.6 89 1.0 CALM 0 0 0 0 - - 0.0
12/07:00pm 16.0 16.5 14.0 88 1.1 ENE 4 7 2 4 - - 0.0
12/06:30pm 16.4 17.3 13.9 85 1.4 NE 2 7 1 4 - - 0.0
12/06:00pm 16.9 17.7 13.6 81 1.9 NE 2 9 1 5 - - 0.0
12/05:30pm 18.0 18.0 13.7 76 2.4 ENE 6 11 3 6 - - 0.0
12/05:00pm 19.4 19.0 14.0 71 3.1 ENE 9 15 5 8 - - 0.0
12/04:30pm 20.9 20.3 13.4 62 4.3 NE 9 15 5 8 - - 0.0
12/04:00pm 22.2 20.7 11.9 52 5.8 NNE 11 19 6 10 - - 0.0
12/03:30pm 22.5 20.5 11.6 50 6.1 NNE 13 20 7 11 - - 0.0
12/03:00pm 22.7 20.9 12.0 50 6.0 NNE 13 24 7 13 - - 0.0
12/02:30pm 22.6 21.7 11.4 49 6.3 NNW 7 17 4 9 - - 0.0
12/02:00pm 23.0 21.6 12.3 51 6.1 NNE 11 19 6 10 - - 0.0
12/01:30pm 22.2 20.6 11.6 51 5.9 N 11 19 6 10 - - 0.0
12/01:00pm 21.8 19.7 12.4 55 5.3 N 15 24 8 13 - - 0.0
12/12:30pm 21.1 18.8 11.7 55 5.2 N 15 24 8 13 - - 0.0
12/12:00pm 20.8 18.1 11.7 56 5.1 NNE 17 24 9 13 - - 0.0
12/11:30am 20.1 18.1 12.6 62 4.2 N 15 20 8 11 - - 0.0
12/11:00am 20.4 19.1 12.4 60 4.5 NNW 11 17 6 9 - - 0.0
12/10:30am 19.5 18.6 12.5 64 3.9 NNE 9 19 5 10 - - 0.0
12/10:00am 18.6 18.3 12.6 68 3.4 N 6 9 3 5 - - 0.0
12/09:30am 16.3 16.8 12.8 80 1.9 N 2 9 1 5 - - 0.0
12/09:00am 14.6 14.9 12.1 85 1.4 WNW 2 6 1 3 - - 0.0
12/08:30am 13.5 14.0 11.7 89 1.0 CALM 0 0 0 0 - - 0.0
12/08:00am 12.8 13.3 11.5 92 0.7 CALM 0 4 0 2 - - 0.0
12/07:30am 12.7 13.1 11.4 92 0.7 CALM 0 0 0 0 - - 0.0
12/07:00am 12.3 12.3 11.0 92 0.7 WSW 2 7 1 4 - - 0.0
12/06:30am 12.0 11.9 10.9 93 0.6 W 2 7 1 4 - - 0.0
12/06:00am 12.6 13.0 11.2 91 0.7 CALM 0 0 0 0 - - 0.0
12/05:30am 12.1 12.3 10.7 91 0.7 CALM 0 0 0 0 - - 0.0
12/05:00am 12.2 11.0 10.4 89 0.9 WNW 7 9 4 5 - - 0.0
12/04:30am 12.3 12.6 10.9 91 0.7 CALM 0 6 0 3 - - 0.0
12/04:00am 12.5 12.7 10.4 87 1.1 CALM 0 0 0 0 - - 0.0
12/03:30am 12.9 12.4 10.8 87 1.1 W 4 7 2 4 - - 0.0
12/03:00am 13.2 13.1 10.9 86 1.2 NW 2 7 1 4 - - 0.0
12/02:30am 13.4 12.9 10.9 85 1.3 W 4 11 2 6 - - 0.0
12/02:00am 13.8 13.0 11.1 84 1.4 WNW 6 9 3 5 - - 0.0
12/01:30am 13.6 13.9 11.0 84 1.4 CALM 0 0 0 0 - - 0.0
12/01:00am 14.2 14.5 10.8 80 1.8 CALM 0 6 0 3 - - 0.0
12/12:30am 14.3 13.0 11.1 81 1.7 WNW 9 13 5 7 - - 0.0
12/12:00am 14.3 13.0 11.1 81 1.7 NW 9 13 5 7 - - 0.0
 
Date/Time
EST
Temp
°C
App
Temp
°C
Dew
Point
°C
Rel
Hum
%
Delta-T
°C
Wind Press
QNH
hPa
Press
MSL
hPa
Rain since
9am
mm
Dir  Spd
km/h
Gust
km/h
Spd
kts
Gust
kts
11/11:30pm 14.6 12.9 11.2 80 1.8 NW 11 13 6 7 - - 0.0
11/11:00pm 14.4 12.7 11.2 81 1.7 NW 11 13 6 7 - - 0.0
11/10:30pm 14.2 12.9 11.2 82 1.6 NW 9 13 5 7 - - 0.0
11/10:00pm 14.1 13.1 11.1 82 1.6 W 7 7 4 4 - - 0.0
11/09:30pm 14.5 13.6 11.3 81 1.7 W 7 7 4 4 - - 0.0
11/09:00pm 14.6 15.0 11.2 80 1.8 CALM 0 0 0 0 - - 0.0
11/08:59pm 14.5 14.9 11.1 80 1.8 CALM 0 0 0 0 - - 0.0
11/08:58pm 19.9 22.0 16.3 80 2.2 CALM 0 0 0 0 - - 0.0
11/08:30pm 14.5 14.8 10.9 79 1.9 CALM 0 0 0 0 - - 0.0
11/08:00pm 14.5 14.8 10.9 79 1.9 CALM 0 0 0 0 - - 0.0
11/07:30pm 14.6 14.9 11.0 79 1.9 CALM 0 0 0 0 - - 0.0
11/07:00pm 14.3 13.4 10.7 79 1.9 ENE 6 7 3 4 - - 0.0
11/06:30pm 14.9 13.4 10.5 75 2.3 E 9 11 5 6 - - 0.0
11/06:00pm 15.4 14.0 10.8 74 2.4 ENE 9 13 5 7 - - 0.0
11/05:30pm 16.1 14.6 10.4 69 3.0 ENE 9 15 5 8 - - 0.0
11/05:00pm 17.5 16.6 10.6 64 3.7 ENE 6 9 3 5 - - 0.0
11/04:30pm 17.8 15.8 10.2 61 4.0 ESE 11 19 6 10 - - 0.0
11/04:00pm 18.8 16.5 10.6 59 4.4 ESE 13 17 7 9 - - 0.0
11/03:30pm 19.4 16.1 10.9 58 4.6 ESE 19 24 10 13 - - 0.0
11/03:00pm 19.9 18.2 9.8 52 5.4 E 9 15 5 8 - - 0.0
11/02:30pm 19.6 18.3 10.0 54 5.1 SE 7 11 4 6 - - 0.0
11/02:00pm 20.4 17.9 9.6 50 5.8 SE 13 22 7 12 - - 0.0
11/01:30pm 21.0 18.0 10.8 52 5.6 SSE 17 20 9 11 - - 0.0
11/01:00pm 19.2 16.1 8.8 51 5.4 SE 15 22 8 12 - - 0.0
11/12:30pm 20.1 16.3 9.7 51 5.6 SSE 20 30 11 16 - - 0.0
11/12:00pm 19.7 14.5 9.0 50 5.6 SSE 26 37 14 20 - - 0.0
11/11:30am 19.7 15.8 9.3 51 5.5 S 20 32 11 17 - - 0.0
11/11:00am 19.0 14.2 8.9 52 5.3 S 24 37 13 20 - - 0.0
11/10:30am 18.6 14.5 8.6 52 5.2 S 20 28 11 15 - - 0.0
11/10:00am 18.3 13.4 8.3 52 5.1 S 24 33 13 18 - - 0.0
11/09:30am 17.6 13.8 7.6 52 5.1 SSW 17 24 9 13 - - 0.0
11/09:00am 16.8 13.5 8.2 57 4.4 SW 15 19 8 10 - - 0.2
11/08:30am 15.2 12.4 8.4 64 3.4 SW 13 17 7 9 - - 0.2
11/08:00am 13.6 10.6 7.8 68 2.9 WSW 13 15 7 8 - - 0.2
11/07:30am 11.6 8.5 7.1 74 2.2 WNW 13 19 7 10 - - 0.2
11/07:00am 11.5 8.3 6.8 73 2.2 WSW 13 17 7 9 - - 0.2
11/06:30am 11.7 8.1 6.8 72 2.3 W 15 20 8 11 - - 0.2
11/06:00am 11.7 8.5 7.0 73 2.2 W 13 17 7 9 - - 0.2
11/05:30am 11.7 8.9 6.8 72 2.3 W 11 17 6 9 - - 0.2
11/05:00am 11.9 8.7 6.8 71 2.4 WSW 13 20 7 11 - - 0.2
11/04:30am 11.9 8.7 6.8 71 2.4 W 13 17 7 9 - - 0.2
11/04:00am 12.4 9.2 6.9 69 2.6 WSW 13 15 7 8 - - 0.2
11/03:30am 13.0 9.5 7.0 67 2.9 WSW 15 20 8 11 - - 0.2
11/03:00am 12.1 8.8 6.4 68 2.7 W 13 19 7 10 - - 0.2
11/02:30am 12.2 8.9 6.5 68 2.7 WSW 13 17 7 9 - - 0.2
11/02:00am 12.6 8.9 6.2 65 3.0 WSW 15 22 8 12 - - 0.2
11/01:30am 12.0 8.3 6.1 67 2.8 WNW 15 20 8 11 - - 0.2
11/01:00am 13.0 9.7 6.4 64 3.1 W 13 19 7 10 - - 0.2
11/12:30am 12.9 9.1 6.0 63 3.3 W 15 19 8 10 - - 0.2
11/12:00am 12.6 9.6 5.8 63 3.2 WNW 11 15 6 8 - - 0.2
 
Date/Time
EST
Temp
°C
App
Temp
°C
Dew
Point
°C
Rel
Hum
%
Delta-T
°C
Wind Press
QNH
hPa
Press
MSL
hPa
Rain since
9am
mm
Dir  Spd
km/h
Gust
km/h
Spd
kts
Gust
kts
10/11:30pm 13.3 9.1 5.7 60 3.6 SW 17 28 9 15 - - 0.2
10/11:00pm 13.1 9.6 5.5 60 3.6 WSW 13 17 7 9 - - 0.2
10/10:30pm 13.4 9.2 5.6 59 3.7 SW 17 24 9 13 - - 0.2
10/10:00pm 14.2 10.4 5.8 57 4.0 SW 15 22 8 12 - - 0.2
10/09:30pm 13.8 10.0 5.7 58 3.8 SW 15 22 8 12 - - 0.2
10/09:00pm 13.9 10.9 6.0 59 3.8 WSW 11 15 6 8 - - 0.2
10/08:30pm 14.3 10.2 6.4 59 3.8 SW 17 26 9 14 - - 0.2
10/08:00pm 14.4 10.4 6.7 60 3.7 SW 17 22 9 12 - - 0.2
10/07:30pm 14.7 11.6 7.3 61 3.6 WSW 13 32 7 17 - - 0.2
10/07:00pm 15.0 10.8 7.5 61 3.7 SSW 19 28 10 15 - - 0.2
10/06:30pm 15.7 10.3 8.0 60 3.9 SSW 26 41 14 22 - - 0.2
10/06:00pm 15.7 10.0 8.4 62 3.7 SSW 28 39 15 21 - - 0.2
10/05:30pm 15.6 11.2 8.8 64 3.5 SSW 22 30 12 16 - - 0.2
10/05:00pm 16.0 10.8 8.7 62 3.7 SSW 26 39 14 21 - - 0.2
10/04:30pm 16.6 11.1 9.3 62 3.8 S 28 43 15 23 - - 0.2
10/04:00pm 16.9 11.1 9.3 61 4.0 S 30 41 16 22 - - 0.2
10/03:55pm 17.0 12.0 9.7 62 3.8 S 26 39 14 21 - - 0.2
10/03:30pm 16.3 14.8 10.4 68 3.1 SSW 9 11 5 6 - - 0.2
10/03:00pm 16.2 16.5 10.9 71 2.8 CALM 0 0 0 0 - - 0.2
10/02:30pm 14.7 13.1 10.3 75 2.3 SSW 9 17 5 9 - - 0.2
10/02:00pm 15.5 11.6 9.6 68 3.1 S 20 33 11 18 - - 0.0
10/01:30pm 18.5 15.0 5.4 42 6.4 SW 13 20 7 11 - - 0.0
10/01:00pm 19.6 16.2 6.0 41 6.7 SW 13 20 7 11 - - 0.0
10/12:30pm 18.3 14.3 4.8 41 6.5 SW 15 24 8 13 - - 0.0
10/12:00pm 18.2 14.5 6.4 46 5.8 WSW 15 20 8 11 - - 0.0
10/11:30am 17.2 12.8 4.9 44 5.9 SW 17 32 9 17 - - 0.0
10/11:00am 16.7 12.3 4.7 45 5.7 SW 17 28 9 15 - - 0.0
10/10:30am 16.2 11.8 4.6 46 5.5 WSW 17 24 9 13 - - 0.0
10/10:00am 15.4 10.9 4.2 47 5.2 WSW 17 24 9 13 - - 0.0
10/09:30am 14.6 9.5 4.0 49 4.9 WSW 20 26 11 14 - - 0.0
10/09:00am 14.7 10.0 5.0 52 4.6 WSW 19 28 10 15 - - 0.0
10/08:30am 13.3 9.0 5.2 58 3.8 W 17 24 9 13 - - 0.0
10/08:00am 12.0 8.4 5.2 63 3.1 WNW 13 17 7 9 - - 0.0
10/07:30am 11.5 7.8 4.7 63 3.1 WNW 13 17 7 9 - - 0.0
10/07:00am 11.2 7.4 4.0 61 3.2 NW 13 19 7 10 - - 0.0
10/06:30am 10.3 6.9 3.8 64 2.9 NNW 11 13 6 7 - - 0.0
10/06:00am 10.0 6.9 3.7 65 2.8 N 9 11 5 6 - - 0.0
10/05:30am 9.8 6.8 4.2 68 2.5 NNW 9 11 5 6 - - 0.0
10/05:00am 10.0 7.0 4.0 66 2.6 NNW 9 13 5 7 - - 0.0
10/04:30am 10.4 7.0 3.9 64 2.9 N 11 15 6 8 - - 0.0
10/04:00am 11.5 7.3 4.0 60 3.4 W 15 24 8 13 - - 0.0
10/03:30am 11.0 7.5 3.5 60 3.3 WNW 11 17 6 9 - - 0.0
10/03:00am 10.0 7.5 3.5 64 2.8 WSW 6 9 3 5 - - 0.0
10/02:30am 8.6 5.9 3.6 71 2.2 WNW 7 9 4 5 - - 0.0
10/02:00am 9.2 6.1 3.6 68 2.4 NW 9 15 5 8 - - 0.0
10/01:30am 8.7 6.0 3.5 70 2.2 NW 7 9 4 5 - - 0.0
10/01:00am 10.2 6.4 3.7 64 2.9 WNW 13 19 7 10 - - 0.0
10/12:30am 10.0 6.5 3.5 64 2.8 NW 11 15 6 8 - - 0.0
10/12:00am 11.1 7.6 3.4 59 3.4 NW 11 20 6 11 - - 0.0
 
Date/Time
EST
Temp
°C
App
Temp
°C
Dew
Point
°C
Rel
Hum
%
Delta-T
°C
Wind Press
QNH
hPa
Press
MSL
hPa
Rain since
9am
mm
Dir  Spd
km/h
Gust
km/h
Spd
kts
Gust
kts
09/11:30pm 10.0 6.1 3.5 64 2.8 WNW 13 19 7 10 - - 0.0
09/11:00pm 9.9 6.1 3.9 66 2.6 NNW 13 15 7 8 - - 0.0
09/10:30pm 9.2 6.8 4.2 71 2.2 NW 6 11 3 6 - - 0.0
09/10:00pm 9.5 6.4 3.7 67 2.5 N 9 11 5 6 - - 0.0
09/09:30pm 9.1 5.6 3.5 68 2.4 N 11 15 6 8 - - 0.0
09/09:00pm 9.7 6.3 3.9 67 2.5 N 11 13 6 7 - - 0.0
09/08:30pm 10.1 6.8 4.3 67 2.6 NW 11 15 6 8 - - 0.0
09/08:00pm 10.3 7.2 3.8 64 2.9 NNW 9 11 5 6 - - 0.0

Other formats

Comma delimited format used in spreadsheet applications
http://www.bom.gov.au/fwo/IDN60801/IDN60801.95571.axf

JavaScript Object Notation format (JSON) in row-major order
http://www.bom.gov.au/fwo/IDN60801/IDN60801.95571.json

Data quality

Most of these data are generated automatically and are frequently updated. Quality checks on data are not normally performed. It is possible for incorrect values to appear. Refer to information at About Latest Weather Observations and please check the disclaimer before using these data.